sensor_id;sensor_type;location;lat;lon;timestamp;temperature;humidity
16417;DHT22;8317;52.186;5.688;2022-09-27T00:01:14;10.60;99.90
16417;DHT22;8317;52.186;5.688;2022-09-27T00:03:43;10.60;99.90
16417;DHT22;8317;52.186;5.688;2022-09-27T00:06:14;10.50;99.90
16417;DHT22;8317;52.186;5.688;2022-09-27T00:08:41;10.50;99.90
16417;DHT22;8317;52.186;5.688;2022-09-27T00:11:13;10.50;99.90
16417;DHT22;8317;52.186;5.688;2022-09-27T00:13:43;10.50;99.90
16417;DHT22;8317;52.186;5.688;2022-09-27T00:16:10;10.50;99.90
16417;DHT22;8317;52.186;5.688;2022-09-27T00:18:37;10.50;99.90
16417;DHT22;8317;52.186;5.688;2022-09-27T00:21:08;10.50;99.90
16417;DHT22;8317;52.186;5.688;2022-09-27T00:23:35;10.50;99.90
16417;DHT22;8317;52.186;5.688;2022-09-27T00:26:02;10.50;99.90
16417;DHT22;8317;52.186;5.688;2022-09-27T00:28:29;10.50;99.90
16417;DHT22;8317;52.186;5.688;2022-09-27T00:30:56;10.50;99.90
16417;DHT22;8317;52.186;5.688;2022-09-27T00:33:24;10.50;99.90
16417;DHT22;8317;52.186;5.688;2022-09-27T00:35:51;10.40;99.90
16417;DHT22;8317;52.186;5.688;2022-09-27T00:38:19;10.40;99.90
16417;DHT22;8317;52.186;5.688;2022-09-27T00:40:46;10.40;99.90
16417;DHT22;8317;52.186;5.688;2022-09-27T00:43:17;10.40;99.90
16417;DHT22;8317;52.186;5.688;2022-09-27T00:45:47;10.50;99.90
16417;DHT22;8317;52.186;5.688;2022-09-27T00:48:18;10.50;99.90
16417;DHT22;8317;52.186;5.688;2022-09-27T00:50:48;10.60;99.90
16417;DHT22;8317;52.186;5.688;2022-09-27T00:53:21;10.40;99.90
16417;DHT22;8317;52.186;5.688;2022-09-27T00:55:53;10.30;99.90
16417;DHT22;8317;52.186;5.688;2022-09-27T00:58:25;10.20;99.90
16417;DHT22;8317;52.186;5.688;2022-09-27T01:00:56;10.30;99.90
16417;DHT22;8317;52.186;5.688;2022-09-27T01:03:29;10.20;99.90
16417;DHT22;8317;52.186;5.688;2022-09-27T01:05:58;10.20;99.90
16417;DHT22;8317;52.186;5.688;2022-09-27T01:08:27;10.30;99.90
16417;DHT22;8317;52.186;5.688;2022-09-27T01:11:09;10.30;99.90
16417;DHT22;8317;52.186;5.688;2022-09-27T01:13:43;10.30;99.90
16417;DHT22;8317;52.186;5.688;2022-09-27T01:16:20;10.30;99.90
16417;DHT22;8317;52.186;5.688;2022-09-27T01:18:59;10.20;99.90
16417;DHT22;8317;52.186;5.688;2022-09-27T01:21:49;10.20;99.90
16417;DHT22;8317;52.186;5.688;2022-09-27T01:30:21;10.10;99.90
16417;DHT22;8317;52.186;5.688;2022-09-27T01:33:06;10.10;99.90
16417;DHT22;8317;52.186;5.688;2022-09-27T01:35:40;10.10;99.90
16417;DHT22;8317;52.186;5.688;2022-09-27T01:38:14;10.10;99.90
16417;DHT22;8317;52.186;5.688;2022-09-27T01:40:50;10.00;99.90
16417;DHT22;8317;52.186;5.688;2022-09-27T01:43:22;10.00;99.90
16417;DHT22;8317;52.186;5.688;2022-09-27T01:45:55;10.00;99.90
16417;DHT22;8317;52.186;5.688;2022-09-27T01:48:29;10.00;99.90
16417;DHT22;8317;52.186;5.688;2022-09-27T01:51:01;9.90;99.90
16417;DHT22;8317;52.186;5.688;2022-09-27T01:53:32;9.90;99.90
16417;DHT22;8317;52.186;5.688;2022-09-27T01:56:04;9.90;99.90
16417;DHT22;8317;52.186;5.688;2022-09-27T01:58:35;9.90;99.90
16417;DHT22;8317;52.186;5.688;2022-09-27T02:01:05;10.00;99.90
16417;DHT22;8317;52.186;5.688;2022-09-27T02:03:36;9.90;99.90
16417;DHT22;8317;52.186;5.688;2022-09-27T02:06:09;9.80;99.90
16417;DHT22;8317;52.186;5.688;2022-09-27T02:08:40;9.80;99.90
16417;DHT22;8317;52.186;5.688;2022-09-27T02:11:10;9.80;99.90
16417;DHT22;8317;52.186;5.688;2022-09-27T02:13:39;9.80;99.90
16417;DHT22;8317;52.186;5.688;2022-09-27T02:16:19;9.70;99.90
16417;DHT22;8317;52.186;5.688;2022-09-27T02:18:53;9.80;99.90
16417;DHT22;8317;52.186;5.688;2022-09-27T02:21:24;9.70;99.90
16417;DHT22;8317;52.186;5.688;2022-09-27T02:23:58;9.80;99.90
16417;DHT22;8317;52.186;5.688;2022-09-27T02:26:31;9.70;99.90
16417;DHT22;8317;52.186;5.688;2022-09-27T02:29:06;9.70;99.90
16417;DHT22;8317;52.186;5.688;2022-09-27T02:31:36;9.60;99.90
16417;DHT22;8317;52.186;5.688;2022-09-27T02:34:05;9.60;99.90
16417;DHT22;8317;52.186;5.688;2022-09-27T02:36:33;9.60;99.90
16417;DHT22;8317;52.186;5.688;2022-09-27T02:39:00;9.60;99.90
16417;DHT22;8317;52.186;5.688;2022-09-27T02:41:26;9.50;99.90
16417;DHT22;8317;52.186;5.688;2022-09-27T02:43:55;9.50;99.90
16417;DHT22;8317;52.186;5.688;2022-09-27T02:49:46;9.50;99.90
16417;DHT22;8317;52.186;5.688;2022-09-27T02:52:21;9.50;99.90
16417;DHT22;8317;52.186;5.688;2022-09-27T02:55:00;9.50;99.90
16417;DHT22;8317;52.186;5.688;2022-09-27T02:57:36;9.50;99.90
16417;DHT22;8317;52.186;5.688;2022-09-27T03:00:09;9.50;99.90
16417;DHT22;8317;52.186;5.688;2022-09-27T03:02:48;9.50;99.90
16417;DHT22;8317;52.186;5.688;2022-09-27T03:05:21;9.50;99.90
16417;DHT22;8317;52.186;5.688;2022-09-27T03:07:49;9.60;99.90
16417;DHT22;8317;52.186;5.688;2022-09-27T03:10:18;9.40;99.90
16417;DHT22;8317;52.186;5.688;2022-09-27T03:12:45;9.50;99.90
16417;DHT22;8317;52.186;5.688;2022-09-27T03:15:12;9.50;99.90
16417;DHT22;8317;52.186;5.688;2022-09-27T03:17:39;9.50;99.90
16417;DHT22;8317;52.186;5.688;2022-09-27T03:20:07;9.40;99.90
16417;DHT22;8317;52.186;5.688;2022-09-27T03:22:35;9.40;99.90
16417;DHT22;8317;52.186;5.688;2022-09-27T03:25:03;9.40;99.90
16417;DHT22;8317;52.186;5.688;2022-09-27T03:27:30;9.40;99.90
16417;DHT22;8317;52.186;5.688;2022-09-27T03:29:57;9.40;99.90
16417;DHT22;8317;52.186;5.688;2022-09-27T03:32:24;9.40;99.90
16417;DHT22;8317;52.186;5.688;2022-09-27T03:34:51;9.40;99.90
16417;DHT22;8317;52.186;5.688;2022-09-27T03:37:19;9.40;99.90
16417;DHT22;8317;52.186;5.688;2022-09-27T03:39:47;9.40;99.90
16417;DHT22;8317;52.186;5.688;2022-09-27T03:42:14;9.30;99.90
16417;DHT22;8317;52.186;5.688;2022-09-27T03:44:41;9.40;99.90
16417;DHT22;8317;52.186;5.688;2022-09-27T03:47:08;9.40;99.90
16417;DHT22;8317;52.186;5.688;2022-09-27T03:49:35;9.50;99.90
16417;DHT22;8317;52.186;5.688;2022-09-27T03:52:02;9.40;99.90
16417;DHT22;8317;52.186;5.688;2022-09-27T03:54:29;9.40;99.90
16417;DHT22;8317;52.186;5.688;2022-09-27T03:56:57;9.40;99.90
16417;DHT22;8317;52.186;5.688;2022-09-27T03:59:24;9.30;99.90
16417;DHT22;8317;52.186;5.688;2022-09-27T04:01:51;9.30;99.90
16417;DHT22;8317;52.186;5.688;2022-09-27T04:04:18;9.20;99.90
16417;DHT22;8317;52.186;5.688;2022-09-27T04:06:44;9.30;99.90
16417;DHT22;8317;52.186;5.688;2022-09-27T04:09:11;9.20;99.90
16417;DHT22;8317;52.186;5.688;2022-09-27T04:11:38;9.20;99.90
16417;DHT22;8317;52.186;5.688;2022-09-27T04:14:06;9.30;99.90
16417;DHT22;8317;52.186;5.688;2022-09-27T04:16:37;9.20;99.90
16417;DHT22;8317;52.186;5.688;2022-09-27T04:19:05;9.20;99.90
16417;DHT22;8317;52.186;5.688;2022-09-27T04:21:32;9.20;99.90
16417;DHT22;8317;52.186;5.688;2022-09-27T04:23:59;9.20;99.90
16417;DHT22;8317;52.186;5.688;2022-09-27T04:26:25;9.20;99.90
16417;DHT22;8317;52.186;5.688;2022-09-27T04:28:52;9.10;99.90
16417;DHT22;8317;52.186;5.688;2022-09-27T04:31:21;9.10;99.90
16417;DHT22;8317;52.186;5.688;2022-09-27T04:33:48;9.20;99.90
16417;DHT22;8317;52.186;5.688;2022-09-27T04:36:17;9.10;99.90
16417;DHT22;8317;52.186;5.688;2022-09-27T04:38:52;9.10;99.90
16417;DHT22;8317;52.186;5.688;2022-09-27T04:41:20;9.10;99.90
16417;DHT22;8317;52.186;5.688;2022-09-27T04:43:48;9.00;99.90
16417;DHT22;8317;52.186;5.688;2022-09-27T04:46:15;9.10;99.90
16417;DHT22;8317;52.186;5.688;2022-09-27T04:48:43;9.00;99.90
16417;DHT22;8317;52.186;5.688;2022-09-27T04:51:10;9.00;99.90
16417;DHT22;8317;52.186;5.688;2022-09-27T04:53:37;9.00;99.90
16417;DHT22;8317;52.186;5.688;2022-09-27T04:56:04;9.00;99.90
16417;DHT22;8317;52.186;5.688;2022-09-27T04:58:32;9.00;99.90
16417;DHT22;8317;52.186;5.688;2022-09-27T05:01:00;9.00;99.90
16417;DHT22;8317;52.186;5.688;2022-09-27T05:03:29;9.00;99.90
16417;DHT22;8317;52.186;5.688;2022-09-27T05:05:57;9.00;99.90
16417;DHT22;8317;52.186;5.688;2022-09-27T05:08:25;9.00;99.90
16417;DHT22;8317;52.186;5.688;2022-09-27T05:10:53;8.90;99.90
16417;DHT22;8317;52.186;5.688;2022-09-27T05:13:20;9.00;99.90
16417;DHT22;8317;52.186;5.688;2022-09-27T05:15:47;9.00;99.90
16417;DHT22;8317;52.186;5.688;2022-09-27T05:18:14;9.00;99.90
16417;DHT22;8317;52.186;5.688;2022-09-27T05:20:42;8.90;99.90
16417;DHT22;8317;52.186;5.688;2022-09-27T05:23:11;9.00;99.90
16417;DHT22;8317;52.186;5.688;2022-09-27T05:25:37;9.00;99.90
16417;DHT22;8317;52.186;5.688;2022-09-27T05:28:05;9.00;99.90
16417;DHT22;8317;52.186;5.688;2022-09-27T05:30:33;9.00;99.90
16417;DHT22;8317;52.186;5.688;2022-09-27T05:33:00;9.10;99.90
16417;DHT22;8317;52.186;5.688;2022-09-27T05:35:27;9.20;99.90
16417;DHT22;8317;52.186;5.688;2022-09-27T05:37:55;9.10;99.90
16417;DHT22;8317;52.186;5.688;2022-09-27T05:40:24;9.10;99.90
16417;DHT22;8317;52.186;5.688;2022-09-27T05:42:51;9.10;99.90
16417;DHT22;8317;52.186;5.688;2022-09-27T05:45:18;9.20;99.90
16417;DHT22;8317;52.186;5.688;2022-09-27T05:47:52;9.10;99.90
16417;DHT22;8317;52.186;5.688;2022-09-27T05:50:19;9.00;99.90
16417;DHT22;8317;52.186;5.688;2022-09-27T05:52:46;9.00;99.90
16417;DHT22;8317;52.186;5.688;2022-09-27T05:55:13;9.00;99.90
16417;DHT22;8317;52.186;5.688;2022-09-27T05:57:42;9.10;99.90
16417;DHT22;8317;52.186;5.688;2022-09-27T06:00:09;9.20;99.90
16417;DHT22;8317;52.186;5.688;2022-09-27T06:02:36;9.10;99.90
16417;DHT22;8317;52.186;5.688;2022-09-27T06:05:03;9.20;99.90
16417;DHT22;8317;52.186;5.688;2022-09-27T06:07:31;9.30;99.90
16417;DHT22;8317;52.186;5.688;2022-09-27T06:09:58;9.40;99.90
16417;DHT22;8317;52.186;5.688;2022-09-27T06:12:25;9.30;99.90
16417;DHT22;8317;52.186;5.688;2022-09-27T06:14:53;9.40;99.90
16417;DHT22;8317;52.186;5.688;2022-09-27T06:17:20;9.40;99.90
16417;DHT22;8317;52.186;5.688;2022-09-27T06:19:46;9.50;99.90
16417;DHT22;8317;52.186;5.688;2022-09-27T06:22:14;9.50;99.90
16417;DHT22;8317;52.186;5.688;2022-09-27T06:24:41;9.60;99.90
16417;DHT22;8317;52.186;5.688;2022-09-27T06:27:07;9.50;99.90
16417;DHT22;8317;52.186;5.688;2022-09-27T06:29:35;9.70;99.90
16417;DHT22;8317;52.186;5.688;2022-09-27T06:32:04;9.80;99.90
16417;DHT22;8317;52.186;5.688;2022-09-27T06:34:31;9.80;99.90
16417;DHT22;8317;52.186;5.688;2022-09-27T06:36:58;10.00;99.90
16417;DHT22;8317;52.186;5.688;2022-09-27T06:39:25;9.90;99.90
16417;DHT22;8317;52.186;5.688;2022-09-27T06:41:53;10.00;99.90
16417;DHT22;8317;52.186;5.688;2022-09-27T06:44:22;10.00;99.90
16417;DHT22;8317;52.186;5.688;2022-09-27T06:46:50;10.00;99.90
16417;DHT22;8317;52.186;5.688;2022-09-27T06:49:19;10.10;99.90
16417;DHT22;8317;52.186;5.688;2022-09-27T06:51:46;10.00;99.90
16417;DHT22;8317;52.186;5.688;2022-09-27T06:54:13;10.20;99.90
16417;DHT22;8317;52.186;5.688;2022-09-27T06:56:40;10.20;99.90
16417;DHT22;8317;52.186;5.688;2022-09-27T06:59:07;10.30;99.90
16417;DHT22;8317;52.186;5.688;2022-09-27T07:01:51;10.40;99.90
16417;DHT22;8317;52.186;5.688;2022-09-27T07:04:19;10.50;99.90
16417;DHT22;8317;52.186;5.688;2022-09-27T07:06:46;10.50;99.90
16417;DHT22;8317;52.186;5.688;2022-09-27T07:09:13;10.40;99.90
16417;DHT22;8317;52.186;5.688;2022-09-27T07:11:41;10.50;99.90
16417;DHT22;8317;52.186;5.688;2022-09-27T07:14:08;10.60;99.90
16417;DHT22;8317;52.186;5.688;2022-09-27T07:16:35;10.70;99.90
16417;DHT22;8317;52.186;5.688;2022-09-27T07:19:02;10.70;99.90
16417;DHT22;8317;52.186;5.688;2022-09-27T07:21:33;10.70;99.90
16417;DHT22;8317;52.186;5.688;2022-09-27T07:24:00;10.80;99.90
16417;DHT22;8317;52.186;5.688;2022-09-27T07:26:27;10.80;99.90
16417;DHT22;8317;52.186;5.688;2022-09-27T07:28:54;10.80;99.90
16417;DHT22;8317;52.186;5.688;2022-09-27T07:31:21;10.70;99.90
16417;DHT22;8317;52.186;5.688;2022-09-27T07:33:49;10.70;99.90
16417;DHT22;8317;52.186;5.688;2022-09-27T07:36:18;10.60;99.90
16417;DHT22;8317;52.186;5.688;2022-09-27T07:38:46;10.60;99.90
16417;DHT22;8317;52.186;5.688;2022-09-27T07:41:13;10.70;99.90
16417;DHT22;8317;52.186;5.688;2022-09-27T07:43:40;10.70;99.90
16417;DHT22;8317;52.186;5.688;2022-09-27T07:46:08;10.80;99.90
16417;DHT22;8317;52.186;5.688;2022-09-27T07:48:35;10.80;99.90
16417;DHT22;8317;52.186;5.688;2022-09-27T07:51:02;10.80;99.90
16417;DHT22;8317;52.186;5.688;2022-09-27T07:53:32;10.90;99.90
16417;DHT22;8317;52.186;5.688;2022-09-27T07:56:00;10.90;99.90
16417;DHT22;8317;52.186;5.688;2022-09-27T07:58:27;11.20;99.90
16417;DHT22;8317;52.186;5.688;2022-09-27T08:00:58;11.20;99.90
16417;DHT22;8317;52.186;5.688;2022-09-27T08:03:25;11.30;99.90
16417;DHT22;8317;52.186;5.688;2022-09-27T08:05:52;11.50;99.90
16417;DHT22;8317;52.186;5.688;2022-09-27T08:08:19;11.40;99.90
16417;DHT22;8317;52.186;5.688;2022-09-27T08:10:45;11.40;99.90
16417;DHT22;8317;52.186;5.688;2022-09-27T08:13:14;11.50;99.90
16417;DHT22;8317;52.186;5.688;2022-09-27T08:15:44;11.60;99.90
16417;DHT22;8317;52.186;5.688;2022-09-27T08:18:13;11.30;99.90
16417;DHT22;8317;52.186;5.688;2022-09-27T08:20:41;11.30;99.90
16417;DHT22;8317;52.186;5.688;2022-09-27T08:23:08;11.30;99.90
16417;DHT22;8317;52.186;5.688;2022-09-27T08:25:35;11.30;99.90
16417;DHT22;8317;52.186;5.688;2022-09-27T08:28:03;11.20;99.90
16417;DHT22;8317;52.186;5.688;2022-09-27T08:30:31;11.20;99.90
16417;DHT22;8317;52.186;5.688;2022-09-27T08:32:59;11.20;99.90
16417;DHT22;8317;52.186;5.688;2022-09-27T08:35:27;11.10;99.90
16417;DHT22;8317;52.186;5.688;2022-09-27T08:37:55;11.10;99.90
16417;DHT22;8317;52.186;5.688;2022-09-27T08:40:30;11.00;99.90
16417;DHT22;8317;52.186;5.688;2022-09-27T08:43:05;11.10;99.90
16417;DHT22;8317;52.186;5.688;2022-09-27T08:45:40;11.00;99.90
16417;DHT22;8317;52.186;5.688;2022-09-27T08:48:09;10.90;99.90
16417;DHT22;8317;52.186;5.688;2022-09-27T08:50:39;10.90;99.90
16417;DHT22;8317;52.186;5.688;2022-09-27T08:53:16;10.90;99.90
16417;DHT22;8317;52.186;5.688;2022-09-27T08:55:47;11.00;99.90
16417;DHT22;8317;52.186;5.688;2022-09-27T08:58:19;11.00;99.90
16417;DHT22;8317;52.186;5.688;2022-09-27T09:00:50;11.00;99.90
16417;DHT22;8317;52.186;5.688;2022-09-27T09:03:22;11.20;99.90
16417;DHT22;8317;52.186;5.688;2022-09-27T09:05:59;11.20;99.90
16417;DHT22;8317;52.186;5.688;2022-09-27T09:08:36;11.30;99.90
16417;DHT22;8317;52.186;5.688;2022-09-27T09:11:11;11.40;99.90
16417;DHT22;8317;52.186;5.688;2022-09-27T09:14:20;11.50;99.90
16417;DHT22;8317;52.186;5.688;2022-09-27T09:16:58;11.60;99.90
16417;DHT22;8317;52.186;5.688;2022-09-27T09:19:46;11.70;99.90
16417;DHT22;8317;52.186;5.688;2022-09-27T09:22:33;11.60;99.90
16417;DHT22;8317;52.186;5.688;2022-09-27T09:25:18;11.60;99.90
16417;DHT22;8317;52.186;5.688;2022-09-27T09:27:53;11.60;99.90
16417;DHT22;8317;52.186;5.688;2022-09-27T09:30:22;11.60;99.90
16417;DHT22;8317;52.186;5.688;2022-09-27T09:33:04;11.60;99.90
16417;DHT22;8317;52.186;5.688;2022-09-27T09:35:38;11.60;99.90
16417;DHT22;8317;52.186;5.688;2022-09-27T09:38:11;11.60;99.90
16417;DHT22;8317;52.186;5.688;2022-09-27T09:40:42;11.50;99.90
16417;DHT22;8317;52.186;5.688;2022-09-27T09:43:17;11.50;99.90
16417;DHT22;8317;52.186;5.688;2022-09-27T09:45:47;11.50;99.90
16417;DHT22;8317;52.186;5.688;2022-09-27T09:48:24;11.60;99.90
16417;DHT22;8317;52.186;5.688;2022-09-27T09:50:56;11.60;99.90
16417;DHT22;8317;52.186;5.688;2022-09-27T09:53:38;11.50;99.90
16417;DHT22;8317;52.186;5.688;2022-09-27T09:56:11;11.60;99.90
16417;DHT22;8317;52.186;5.688;2022-09-27T09:58:43;11.60;99.90
16417;DHT22;8317;52.186;5.688;2022-09-27T10:01:17;11.60;99.90
16417;DHT22;8317;52.186;5.688;2022-09-27T10:03:47;11.60;99.90
16417;DHT22;8317;52.186;5.688;2022-09-27T10:06:15;11.70;99.90
16417;DHT22;8317;52.186;5.688;2022-09-27T10:08:43;11.70;99.90
16417;DHT22;8317;52.186;5.688;2022-09-27T10:11:18;11.70;99.90
16417;DHT22;8317;52.186;5.688;2022-09-27T10:13:45;11.60;99.90
16417;DHT22;8317;52.186;5.688;2022-09-27T10:16:15;11.70;99.90
16417;DHT22;8317;52.186;5.688;2022-09-27T10:18:43;11.60;99.90
16417;DHT22;8317;52.186;5.688;2022-09-27T10:21:17;11.60;99.90
16417;DHT22;8317;52.186;5.688;2022-09-27T10:24:09;11.60;99.90
16417;DHT22;8317;52.186;5.688;2022-09-27T10:26:37;11.50;99.90
16417;DHT22;8317;52.186;5.688;2022-09-27T10:29:16;11.40;99.90
16417;DHT22;8317;52.186;5.688;2022-09-27T10:31:45;11.50;99.90
16417;DHT22;8317;52.186;5.688;2022-09-27T10:34:19;11.60;99.90
16417;DHT22;8317;52.186;5.688;2022-09-27T10:37:05;11.50;99.90
16417;DHT22;8317;52.186;5.688;2022-09-27T10:39:33;11.50;99.90
16417;DHT22;8317;52.186;5.688;2022-09-27T10:42:00;11.50;99.90
16417;DHT22;8317;52.186;5.688;2022-09-27T10:44:29;11.60;99.90
16417;DHT22;8317;52.186;5.688;2022-09-27T10:47:00;11.50;99.90
16417;DHT22;8317;52.186;5.688;2022-09-27T10:49:33;11.50;99.90
16417;DHT22;8317;52.186;5.688;2022-09-27T10:52:05;11.60;99.90
16417;DHT22;8317;52.186;5.688;2022-09-27T10:54:35;11.70;99.90
16417;DHT22;8317;52.186;5.688;2022-09-27T10:57:04;11.80;99.90
16417;DHT22;8317;52.186;5.688;2022-09-27T10:59:33;11.60;99.90
16417;DHT22;8317;52.186;5.688;2022-09-27T11:02:02;11.50;99.90
16417;DHT22;8317;52.186;5.688;2022-09-27T11:04:31;11.60;99.90
16417;DHT22;8317;52.186;5.688;2022-09-27T11:07:13;11.70;99.90
16417;DHT22;8317;52.186;5.688;2022-09-27T11:09:49;11.60;99.90
16417;DHT22;8317;52.186;5.688;2022-09-27T11:12:17;11.60;99.90
16417;DHT22;8317;52.186;5.688;2022-09-27T11:14:51;11.60;99.90
16417;DHT22;8317;52.186;5.688;2022-09-27T11:17:26;11.60;99.90
16417;DHT22;8317;52.186;5.688;2022-09-27T11:20:07;11.60;99.90
16417;DHT22;8317;52.186;5.688;2022-09-27T11:25:49;11.60;99.90
16417;DHT22;8317;52.186;5.688;2022-09-27T11:28:25;11.70;99.90
16417;DHT22;8317;52.186;5.688;2022-09-27T11:31:02;11.70;99.90
16417;DHT22;8317;52.186;5.688;2022-09-27T11:33:44;11.70;99.90
16417;DHT22;8317;52.186;5.688;2022-09-27T11:36:25;11.90;99.90
16417;DHT22;8317;52.186;5.688;2022-09-27T11:39:01;11.90;99.90
16417;DHT22;8317;52.186;5.688;2022-09-27T11:41:40;11.80;99.90
16417;DHT22;8317;52.186;5.688;2022-09-27T11:44:26;11.70;99.90
16417;DHT22;8317;52.186;5.688;2022-09-27T11:46:59;11.80;99.90
16417;DHT22;8317;52.186;5.688;2022-09-27T11:52:32;11.90;99.90
16417;DHT22;8317;52.186;5.688;2022-09-27T11:55:22;11.60;99.90
16417;DHT22;8317;52.186;5.688;2022-09-27T11:57:57;11.70;99.90
16417;DHT22;8317;52.186;5.688;2022-09-27T12:00:35;11.90;99.90
16417;DHT22;8317;52.186;5.688;2022-09-27T12:03:30;11.70;99.90
16417;DHT22;8317;52.186;5.688;2022-09-27T12:06:06;11.80;99.90
16417;DHT22;8317;52.186;5.688;2022-09-27T12:08:52;11.80;99.90
16417;DHT22;8317;52.186;5.688;2022-09-27T12:11:28;11.70;99.90
16417;DHT22;8317;52.186;5.688;2022-09-27T12:13:58;11.70;99.90
16417;DHT22;8317;52.186;5.688;2022-09-27T12:16:29;11.60;99.90
16417;DHT22;8317;52.186;5.688;2022-09-27T12:18:58;11.70;99.90
16417;DHT22;8317;52.186;5.688;2022-09-27T12:21:26;11.70;99.90
16417;DHT22;8317;52.186;5.688;2022-09-27T12:23:57;11.60;99.90
16417;DHT22;8317;52.186;5.688;2022-09-27T12:26:29;11.60;99.90
16417;DHT22;8317;52.186;5.688;2022-09-27T12:29:00;11.70;99.90
16417;DHT22;8317;52.186;5.688;2022-09-27T12:31:30;11.70;99.90
16417;DHT22;8317;52.186;5.688;2022-09-27T12:34:05;11.80;99.90
16417;DHT22;8317;52.186;5.688;2022-09-27T12:36:38;11.80;99.90
16417;DHT22;8317;52.186;5.688;2022-09-27T12:39:12;11.90;99.90
16417;DHT22;8317;52.186;5.688;2022-09-27T12:41:48;11.80;99.90
16417;DHT22;8317;52.186;5.688;2022-09-27T12:44:17;11.80;99.90
16417;DHT22;8317;52.186;5.688;2022-09-27T12:46:54;11.70;99.90
16417;DHT22;8317;52.186;5.688;2022-09-27T12:49:33;11.70;99.90
16417;DHT22;8317;52.186;5.688;2022-09-27T12:52:09;11.60;99.90
16417;DHT22;8317;52.186;5.688;2022-09-27T12:58:00;11.30;99.90
16417;DHT22;8317;52.186;5.688;2022-09-27T13:00:35;11.20;99.90
16417;DHT22;8317;52.186;5.688;2022-09-27T13:03:25;11.00;99.90
16417;DHT22;8317;52.186;5.688;2022-09-27T13:06:13;11.00;99.90
16417;DHT22;8317;52.186;5.688;2022-09-27T13:09:26;11.00;99.90
16417;DHT22;8317;52.186;5.688;2022-09-27T13:12:01;10.90;99.90
16417;DHT22;8317;52.186;5.688;2022-09-27T13:14:34;10.90;99.90
16417;DHT22;8317;52.186;5.688;2022-09-27T13:17:04;10.80;99.90
16417;DHT22;8317;52.186;5.688;2022-09-27T13:19:40;10.80;99.90
16417;DHT22;8317;52.186;5.688;2022-09-27T13:22:09;10.90;99.90
16417;DHT22;8317;52.186;5.688;2022-09-27T13:24:46;10.80;99.90
16417;DHT22;8317;52.186;5.688;2022-09-27T13:27:43;10.80;99.90
16417;DHT22;8317;52.186;5.688;2022-09-27T13:30:43;10.80;99.90
16417;DHT22;8317;52.186;5.688;2022-09-27T13:33:31;10.70;99.90
16417;DHT22;8317;52.186;5.688;2022-09-27T13:36:06;10.70;99.90
16417;DHT22;8317;52.186;5.688;2022-09-27T13:38:34;10.90;99.90
16417;DHT22;8317;52.186;5.688;2022-09-27T13:41:13;10.80;99.90
16417;DHT22;8317;52.186;5.688;2022-09-27T13:44:00;10.90;99.90
16417;DHT22;8317;52.186;5.688;2022-09-27T13:46:33;10.90;99.90
16417;DHT22;8317;52.186;5.688;2022-09-27T13:49:03;11.00;99.90
16417;DHT22;8317;52.186;5.688;2022-09-27T13:51:35;10.90;99.90
16417;DHT22;8317;52.186;5.688;2022-09-27T13:54:36;11.10;99.90
16417;DHT22;8317;52.186;5.688;2022-09-27T13:57:04;11.10;99.90
16417;DHT22;8317;52.186;5.688;2022-09-27T13:59:39;11.10;99.90
16417;DHT22;8317;52.186;5.688;2022-09-27T14:02:16;11.20;99.90
16417;DHT22;8317;52.186;5.688;2022-09-27T14:04:47;11.10;99.90
16417;DHT22;8317;52.186;5.688;2022-09-27T14:07:17;11.10;99.90
16417;DHT22;8317;52.186;5.688;2022-09-27T14:09:46;11.20;99.90
16417;DHT22;8317;52.186;5.688;2022-09-27T14:12:16;11.40;99.90
16417;DHT22;8317;52.186;5.688;2022-09-27T14:14:45;11.50;99.90
16417;DHT22;8317;52.186;5.688;2022-09-27T14:17:15;11.60;99.90
16417;DHT22;8317;52.186;5.688;2022-09-27T14:19:43;11.70;99.90
16417;DHT22;8317;52.186;5.688;2022-09-27T14:22:13;11.60;99.90
16417;DHT22;8317;52.186;5.688;2022-09-27T14:24:45;11.70;99.90
16417;DHT22;8317;52.186;5.688;2022-09-27T14:27:15;11.70;99.90
16417;DHT22;8317;52.186;5.688;2022-09-27T14:29:46;11.60;99.90
16417;DHT22;8317;52.186;5.688;2022-09-27T14:32:16;11.40;99.90
16417;DHT22;8317;52.186;5.688;2022-09-27T14:34:44;11.40;99.90
16417;DHT22;8317;52.186;5.688;2022-09-27T14:37:22;11.40;99.90
16417;DHT22;8317;52.186;5.688;2022-09-27T14:40:00;11.50;99.90
16417;DHT22;8317;52.186;5.688;2022-09-27T14:42:32;11.60;99.90
16417;DHT22;8317;52.186;5.688;2022-09-27T14:45:04;11.70;99.90
16417;DHT22;8317;52.186;5.688;2022-09-27T14:47:33;11.70;99.90
16417;DHT22;8317;52.186;5.688;2022-09-27T14:50:07;11.80;99.90
16417;DHT22;8317;52.186;5.688;2022-09-27T14:52:39;11.80;99.90
16417;DHT22;8317;52.186;5.688;2022-09-27T14:55:09;12.00;99.90
16417;DHT22;8317;52.186;5.688;2022-09-27T14:57:44;11.90;99.90
16417;DHT22;8317;52.186;5.688;2022-09-27T15:00:17;11.90;99.90
16417;DHT22;8317;52.186;5.688;2022-09-27T15:02:47;11.90;99.90
16417;DHT22;8317;52.186;5.688;2022-09-27T15:05:18;11.90;99.90
16417;DHT22;8317;52.186;5.688;2022-09-27T15:07:46;12.00;99.90
16417;DHT22;8317;52.186;5.688;2022-09-27T15:10:16;11.90;99.90
16417;DHT22;8317;52.186;5.688;2022-09-27T15:12:45;11.80;99.90
16417;DHT22;8317;52.186;5.688;2022-09-27T15:15:15;11.80;99.90
16417;DHT22;8317;52.186;5.688;2022-09-27T15:17:46;11.70;99.90
16417;DHT22;8317;52.186;5.688;2022-09-27T15:20:22;11.70;99.90
16417;DHT22;8317;52.186;5.688;2022-09-27T15:22:50;11.70;99.90
16417;DHT22;8317;52.186;5.688;2022-09-27T15:25:21;11.70;99.90
16417;DHT22;8317;52.186;5.688;2022-09-27T15:27:52;11.70;99.90
16417;DHT22;8317;52.186;5.688;2022-09-27T15:30:23;11.70;99.90
16417;DHT22;8317;52.186;5.688;2022-09-27T15:32:54;11.50;99.90
16417;DHT22;8317;52.186;5.688;2022-09-27T15:35:24;11.60;99.90
16417;DHT22;8317;52.186;5.688;2022-09-27T15:38:02;11.60;99.90
16417;DHT22;8317;52.186;5.688;2022-09-27T15:41:09;11.50;99.90
16417;DHT22;8317;52.186;5.688;2022-09-27T15:43:42;11.50;99.90
16417;DHT22;8317;52.186;5.688;2022-09-27T15:46:34;11.60;99.90
16417;DHT22;8317;52.186;5.688;2022-09-27T15:49:22;11.50;99.90
16417;DHT22;8317;52.186;5.688;2022-09-27T15:51:53;11.30;99.90
16417;DHT22;8317;52.186;5.688;2022-09-27T15:54:21;11.30;99.90
16417;DHT22;8317;52.186;5.688;2022-09-27T15:56:49;11.10;99.90
16417;DHT22;8317;52.186;5.688;2022-09-27T15:59:20;11.10;99.90
16417;DHT22;8317;52.186;5.688;2022-09-27T16:01:48;11.00;99.90
16417;DHT22;8317;52.186;5.688;2022-09-27T16:04:15;11.10;99.90
16417;DHT22;8317;52.186;5.688;2022-09-27T16:06:43;11.00;99.90
16417;DHT22;8317;52.186;5.688;2022-09-27T16:09:13;11.00;99.90
16417;DHT22;8317;52.186;5.688;2022-09-27T16:11:43;10.90;99.90
16417;DHT22;8317;52.186;5.688;2022-09-27T16:14:10;10.90;99.90
16417;DHT22;8317;52.186;5.688;2022-09-27T16:16:41;10.80;99.90
16417;DHT22;8317;52.186;5.688;2022-09-27T16:19:09;10.90;99.90
16417;DHT22;8317;52.186;5.688;2022-09-27T16:21:36;10.90;99.90
16417;DHT22;8317;52.186;5.688;2022-09-27T16:24:05;10.80;99.90
16417;DHT22;8317;52.186;5.688;2022-09-27T16:26:31;10.80;99.90
16417;DHT22;8317;52.186;5.688;2022-09-27T16:28:58;10.70;99.90
16417;DHT22;8317;52.186;5.688;2022-09-27T16:31:25;10.80;99.90
16417;DHT22;8317;52.186;5.688;2022-09-27T16:33:52;10.70;99.90
16417;DHT22;8317;52.186;5.688;2022-09-27T16:36:19;10.70;99.90